Time;durP1;ratioP1;P1;durP2;ratioP2;P2;SDS_P1;SDS_P2;PMS_P1;PMS_P2;Temp;Humidity;BMP_temperature;BMP_pressure;BME280_temperature;BME280_humidity;BME280_pressure;Samples;Min_cycle;Max_cycle;Signal;HPM_P1;HPM_P2
2023/05/30 00:00:26;;;;;;;2.75;1.40;;;17.60;49.90;;;;;;4997931;28;20033;-79
2023/05/30 00:02:52;;;;;;;3.63;1.45;;;17.50;50.00;;;;;;5015485;28;20030;-78
2023/05/30 00:05:18;;;;;;;3.03;1.33;;;17.50;50.00;;;;;;5015078;28;20057;-78
2023/05/30 00:07:43;;;;;;;1.52;1.20;;;17.50;50.00;;;;;;5014958;28;20092;-79
2023/05/30 00:10:09;;;;;;;2.80;1.55;;;17.40;50.10;;;;;;5014553;28;20042;-79
2023/05/30 00:12:35;;;;;;;3.15;1.27;;;17.40;50.10;;;;;;4998052;28;20041;-80
2023/05/30 00:15:05;;;;;;;3.97;1.38;;;17.30;50.10;;;;;;5015235;28;20529;-79
2023/05/30 00:17:32;;;;;;;2.90;1.15;;;17.30;50.20;;;;;;5014771;28;20048;-79
2023/05/30 00:19:59;;;;;;;3.78;1.40;;;17.20;50.30;;;;;;5014272;28;20056;-78
2023/05/30 00:22:25;;;;;;;3.10;1.48;;;17.20;50.40;;;;;;5013992;28;20037;-79
2023/05/30 00:24:51;;;;;;;3.58;1.40;;;17.20;50.40;;;;;;5013407;28;20041;-80
2023/05/30 00:27:18;;;;;;;3.50;1.38;;;17.10;50.40;;;;;;4997265;28;20038;-79
2023/05/30 00:29:45;;;;;;;3.25;1.70;;;17.10;50.50;;;;;;4997299;28;20034;-78
2023/05/30 00:32:14;;;;;;;2.95;1.70;;;17.00;50.50;;;;;;5013580;28;20069;-79
2023/05/30 00:34:40;;;;;;;5.05;1.75;;;17.00;50.60;;;;;;5013254;28;20475;-79
2023/05/30 00:37:06;;;;;;;3.60;1.42;;;17.00;50.70;;;;;;4981061;28;20036;-79
2023/05/30 00:39:32;;;;;;;2.90;1.38;;;16.90;50.70;;;;;;5046440;28;20037;-80
2023/05/30 00:41:57;;;;;;;1.98;1.23;;;16.90;50.80;;;;;;5013335;28;20368;-80
2023/05/30 00:44:23;;;;;;;2.72;1.30;;;16.90;50.80;;;;;;5046400;28;20036;-78
2023/05/30 00:46:51;;;;;;;3.42;1.40;;;16.80;50.80;;;;;;5029686;28;20026;-79
2023/05/30 00:49:18;;;;;;;2.17;1.40;;;16.80;50.90;;;;;;5013237;28;20037;-78
2023/05/30 00:51:44;;;;;;;3.67;1.40;;;16.80;50.90;;;;;;5029797;28;20080;-80
2023/05/30 00:54:11;;;;;;;3.00;1.52;;;16.80;51.00;;;;;;5029492;28;20426;-80
2023/05/30 00:56:37;;;;;;;3.67;1.63;;;16.70;51.00;;;;;;4981434;28;20040;-79
2023/05/30 00:59:03;;;;;;;2.85;1.48;;;16.70;51.00;;;;;;5012884;28;20033;-80
2023/05/30 01:01:29;;;;;;;2.80;1.30;;;16.60;51.00;;;;;;5029579;28;20165;-79
2023/05/30 01:03:56;;;;;;;3.28;1.50;;;16.60;51.10;;;;;;5014321;28;20030;-79
2023/05/30 01:06:23;;;;;;;3.70;1.95;;;16.50;51.10;;;;;;4998123;28;20041;-81
2023/05/30 01:08:51;;;;;;;3.80;1.60;;;16.50;51.20;;;;;;5013028;28;20037;-83
2023/05/30 01:11:32;;;;;;;3.30;1.27;;;16.50;51.30;;;;;;5014163;28;20169;-78
2023/05/30 01:14:06;;;;;;;3.22;1.50;;;16.40;51.30;;;;;;5029449;28;20052;-80
2023/05/30 01:16:39;;;;;;;2.50;1.10;;;16.40;51.30;;;;;;5014405;28;20061;-79
2023/05/30 01:19:23;;;;;;;2.10;1.10;;;16.40;51.40;;;;;;5012964;28;20030;-80
2023/05/30 01:22:03;;;;;;;5.18;1.45;;;16.30;51.50;;;;;;5013362;28;20029;-80
2023/05/30 01:24:41;;;;;;;2.75;1.15;;;16.30;51.50;;;;;;5045925;28;20030;-79
2023/05/30 01:27:34;;;;;;;2.30;1.23;;;16.30;51.60;;;;;;5012092;28;20034;-79
2023/05/30 01:30:02;;;;;;;3.28;1.40;;;16.20;51.60;;;;;;5012452;28;20034;-80
2023/05/30 01:32:28;;;;;;;3.13;1.67;;;16.20;51.60;;;;;;5029011;28;20022;-79
2023/05/30 01:34:57;;;;;;;3.03;1.25;;;16.20;51.70;;;;;;4996646;28;20038;-79
2023/05/30 01:37:23;;;;;;;2.92;1.50;;;16.10;51.70;;;;;;4996526;28;20037;-78
2023/05/30 01:39:49;;;;;;;3.10;1.40;;;16.10;51.70;;;;;;4979709;28;20033;-79
2023/05/30 01:42:23;;;;;;;2.70;1.35;;;16.10;51.80;;;;;;5012548;28;20482;-79
2023/05/30 01:45:10;;;;;;;3.83;1.58;;;16.10;51.90;;;;;;5046257;28;20044;-79
2023/05/30 01:47:59;;;;;;;1.90;1.38;;;16.00;51.90;;;;;;5013194;28;20030;-80
2023/05/30 01:50:32;;;;;;;2.65;1.45;;;16.00;52.00;;;;;;5046125;28;20057;-78
2023/05/30 01:53:02;;;;;;;3.63;1.80;;;16.00;52.00;;;;;;5029147;28;20490;-81
2023/05/30 01:55:31;;;;;;;4.55;1.42;;;15.90;52.00;;;;;;5011945;28;20030;-81
2023/05/30 01:57:57;;;;;;;2.38;1.30;;;15.90;52.10;;;;;;5013896;28;20042;-78
2023/05/30 02:00:27;;;;;;;4.63;1.65;;;15.90;52.10;;;;;;5012414;28;20032;-79
2023/05/30 02:02:53;;;;;;;1.70;1.15;;;15.90;52.20;;;;;;5028620;28;20168;-80
2023/05/30 02:05:19;;;;;;;4.50;1.40;;;15.80;52.20;;;;;;4995312;28;20482;-79
2023/05/30 02:07:45;;;;;;;3.33;1.40;;;15.80;52.20;;;;;;4995867;28;20061;-79
2023/05/30 02:10:11;;;;;;;4.28;1.65;;;15.80;52.30;;;;;;5012907;28;20046;-79
2023/05/30 02:12:46;;;;;;;;;;;15.70;52.30;;;;;;4997519;28;20037;-79
2023/05/30 02:15:12;;;;;;;3.90;1.40;;;15.70;52.10;;;;;;5028542;28;19917;-78
2023/05/30 02:17:38;;;;;;;2.28;1.40;;;15.70;52.20;;;;;;4995680;28;20065;-79
2023/05/30 02:20:05;;;;;;;1.77;1.35;;;15.70;52.40;;;;;;5013785;28;20069;-79
2023/05/30 02:22:31;;;;;;;2.83;1.38;;;15.70;52.40;;;;;;5013336;28;20121;-79
2023/05/30 02:24:57;;;;;;;2.88;1.38;;;15.60;52.40;;;;;;5012117;28;20065;-79
2023/05/30 02:27:24;;;;;;;2.35;1.50;;;15.60;52.50;;;;;;5012501;28;20363;-78
2023/05/30 02:29:50;;;;;;;3.83;1.63;;;15.60;52.60;;;;;;4980434;28;20037;-80
2023/05/30 02:32:16;;;;;;;2.88;1.58;;;15.60;53.20;;;;;;5012325;28;20109;-78
2023/05/30 02:34:44;;;;;;;2.72;1.40;;;15.60;52.60;;;;;;5012477;28;20471;-78
2023/05/30 02:37:10;;;;;;;3.45;1.60;;;15.50;52.60;;;;;;5045294;28;20494;-79
2023/05/30 02:39:37;;;;;;;2.65;1.38;;;15.60;52.70;;;;;;4999640;28;20026;-78
2023/05/30 02:42:05;;;;;;;3.65;1.50;;;15.50;52.70;;;;;;5048878;28;20088;-78
2023/05/30 02:44:33;;;;;;;2.67;1.48;;;15.50;52.80;;;;;;5048521;28;20099;-78
2023/05/30 02:46:59;;;;;;;2.13;1.23;;;15.50;52.80;;;;;;5015680;28;20108;-78
2023/05/30 02:49:27;;;;;;;2.42;1.50;;;15.50;52.80;;;;;;5016061;28;20026;-78
2023/05/30 02:51:53;;;;;;;4.15;1.60;;;15.40;52.80;;;;;;5048673;28;20437;-78
2023/05/30 02:54:23;;;;;;;4.03;1.48;;;15.40;52.90;;;;;;5015751;28;20057;-78
2023/05/30 02:57:07;;;;;;;4.32;1.50;;;15.40;52.90;;;;;;5017282;28;20045;-80
2023/05/30 02:59:52;;;;;;;2.17;1.38;;;15.40;52.90;;;;;;4988738;28;20034;-79
2023/05/30 03:02:19;;;;;;;2.63;1.60;;;15.40;52.90;;;;;;5016140;28;20088;-78
2023/05/30 03:04:46;;;;;;;2.17;1.50;;;15.40;53.00;;;;;;5015382;28;20136;-79
2023/05/30 03:07:13;;;;;;;3.05;1.50;;;15.40;53.10;;;;;;4999686;28;20366;-78
2023/05/30 03:09:40;;;;;;;3.78;1.63;;;15.40;53.10;;;;;;5016218;28;20182;-78
2023/05/30 03:12:06;;;;;;;2.53;1.48;;;15.40;53.10;;;;;;4999236;28;20034;-78
2023/05/30 03:14:32;;;;;;;2.35;1.50;;;15.40;53.10;;;;;;4999109;28;20387;-81
2023/05/30 03:16:58;;;;;;;1.92;1.50;;;15.40;53.10;;;;;;5048047;28;20066;-77
2023/05/30 03:19:24;;;;;;;3.72;1.60;;;15.40;53.20;;;;;;5014980;28;20060;-77
2023/05/30 03:21:53;;;;;;;2.75;1.73;;;15.30;53.80;;;;;;4998886;28;20037;-77
2023/05/30 03:24:20;;;;;;;2.95;1.50;;;15.30;53.20;;;;;;5015118;28;20030;-79
2023/05/30 03:26:47;;;;;;;2.08;1.40;;;15.30;53.30;;;;;;4999146;28;20430;-79
2023/05/30 03:29:15;;;;;;;2.08;1.25;;;15.30;53.30;;;;;;5014980;28;20037;-78
2023/05/30 03:31:41;;;;;;;1.77;1.40;;;15.30;53.30;;;;;;5031239;28;20207;-78
2023/05/30 03:34:08;;;;;;;3.25;1.50;;;15.30;53.40;;;;;;5014837;28;20034;-78
2023/05/30 03:36:35;;;;;;;2.78;1.38;;;15.30;53.40;;;;;;5014623;28;20034;-78
2023/05/30 03:39:01;;;;;;;4.22;1.75;;;15.30;53.40;;;;;;5047651;28;20403;-78
2023/05/30 03:41:27;;;;;;;2.22;1.60;;;15.30;53.50;;;;;;5014974;28;20038;-77
2023/05/30 03:43:53;;;;;;;3.47;1.60;;;15.20;53.40;;;;;;5015216;28;20360;-79
2023/05/30 03:46:20;;;;;;;3.55;1.70;;;15.20;53.40;;;;;;5014463;28;20026;-78
2023/05/30 03:48:47;;;;;;;3.83;1.50;;;15.20;53.50;;;;;;4997606;28;20434;-78
2023/05/30 03:51:13;;;;;;;2.88;1.45;;;15.20;53.60;;;;;;5014787;28;20038;-81
2023/05/30 03:53:41;;;;;;;3.17;1.45;;;15.20;53.60;;;;;;4998114;28;20037;-79
2023/05/30 03:56:06;;;;;;;3.15;1.70;;;15.20;53.70;;;;;;5014332;28;20402;-78
2023/05/30 03:58:33;;;;;;;2.45;1.70;;;15.20;53.70;;;;;;5015008;28;20038;-77
2023/05/30 04:01:01;;;;;;;2.45;1.58;;;15.20;53.70;;;;;;5030862;28;20109;-78
2023/05/30 04:03:28;;;;;;;3.65;1.60;;;15.20;53.70;;;;;;5030843;28;20374;-78
2023/05/30 04:05:55;;;;;;;3.10;1.50;;;15.10;53.70;;;;;;5015120;28;20049;-77
2023/05/30 04:08:24;;;;;;;2.42;1.50;;;15.20;53.80;;;;;;5033613;28;20037;-80
2023/05/30 04:10:50;;;;;;;2.30;1.45;;;15.10;53.80;;;;;;5016181;28;20083;-79
2023/05/30 04:13:16;;;;;;;2.05;1.42;;;15.10;53.70;;;;;;5014716;28;20469;-78
2023/05/30 04:15:43;;;;;;;2.22;1.52;;;15.10;53.80;;;;;;5030018;28;20242;-79
2023/05/30 04:18:10;;;;;;;4.28;1.98;;;15.10;53.80;;;;;;5030212;28;20144;-80
2023/05/30 04:20:36;;;;;;;3.17;1.52;;;15.10;53.80;;;;;;5013763;28;20033;-78
2023/05/30 04:23:01;;;;;;;2.30;1.60;;;15.10;53.80;;;;;;4997413;28;20172;-78
2023/05/30 04:25:28;;;;;;;2.55;1.58;;;15.10;53.90;;;;;;5014320;28;20052;-78
2023/05/30 04:27:54;;;;;;;3.55;1.77;;;15.10;53.90;;;;;;5030016;28;20562;-77
2023/05/30 04:30:20;;;;;;;3.30;1.80;;;15.10;53.90;;;;;;4997603;28;20113;-77
2023/05/30 04:32:46;;;;;;;3.25;1.63;;;15.10;54.00;;;;;;4997250;28;20065;-77
2023/05/30 04:35:15;;;;;;;3.03;1.85;;;15.10;54.00;;;;;;4997150;28;20417;-77
2023/05/30 04:37:44;;;;;;;2.50;1.60;;;15.10;54.00;;;;;;5014655;28;20095;-77
2023/05/30 04:40:14;;;;;;;2.88;1.65;;;15.10;54.60;;;;;;4998133;28;20022;-78
2023/05/30 04:42:41;;;;;;;2.92;1.48;;;15.10;54.00;;;;;;4998549;28;20125;-80
2023/05/30 04:45:09;;;;;;;3.25;1.73;;;15.10;54.00;;;;;;5031368;28;20030;-81
2023/05/30 04:47:36;;;;;;;3.47;1.50;;;15.10;54.10;;;;;;5013980;28;20422;-78
2023/05/30 04:50:02;;;;;;;1.92;1.75;;;15.10;54.10;;;;;;5013695;28;20026;-77
2023/05/30 04:52:28;;;;;;;2.50;1.52;;;15.10;54.10;;;;;;5030604;28;20120;-78
2023/05/30 04:54:55;;;;;;;3.83;1.70;;;15.10;54.10;;;;;;5046475;28;20120;-79
2023/05/30 04:57:21;;;;;;;3.47;1.67;;;15.10;54.10;;;;;;5029719;28;20033;-78
2023/05/30 04:59:47;;;;;;;2.70;1.60;;;15.10;54.10;;;;;;5013020;28;20034;-78
2023/05/30 05:02:13;;;;;;;3.05;1.80;;;15.10;54.20;;;;;;5012510;28;20034;-80
2023/05/30 05:04:40;;;;;;;3.58;1.80;;;15.10;54.20;;;;;;5013987;28;20045;-79
2023/05/30 05:07:06;;;;;;;3.83;1.85;;;15.10;54.20;;;;;;5013037;28;20150;-80
2023/05/30 05:09:31;;;;;;;3.30;1.90;;;15.10;54.20;;;;;;4996815;28;20038;-79
2023/05/30 05:11:57;;;;;;;3.35;2.08;;;15.10;54.90;;;;;;5012830;28;20034;-80
2023/05/30 05:14:23;;;;;;;2.85;1.70;;;15.10;54.20;;;;;;5029934;28;20030;-79
2023/05/30 05:16:49;;;;;;;3.78;2.03;;;15.10;54.30;;;;;;4996622;28;20470;-79
2023/05/30 05:19:15;;;;;;;3.15;1.73;;;15.10;54.30;;;;;;5012924;28;20057;-79
2023/05/30 05:21:41;;;;;;;4.13;2.00;;;15.10;54.30;;;;;;4995871;28;20119;-82
2023/05/30 05:24:10;;;;;;;2.38;1.70;;;15.10;54.30;;;;;;5045845;28;20065;-78
2023/05/30 05:26:36;;;;;;;2.15;1.90;;;15.10;54.30;;;;;;5012955;28;20033;-79
2023/05/30 05:29:02;;;;;;;3.30;1.70;;;15.10;54.30;;;;;;5012752;28;20033;-79
2023/05/30 05:31:30;;;;;;;3.22;1.60;;;15.20;54.40;;;;;;5013434;28;20033;-83
2023/05/30 05:33:56;;;;;;;3.28;1.77;;;15.20;54.40;;;;;;5029803;28;20100;-83
2023/05/30 05:36:22;;;;;;;3.05;1.85;;;15.10;54.40;;;;;;5012657;28;20056;-80
2023/05/30 05:38:47;;;;;;;3.03;1.67;;;15.10;54.40;;;;;;4996051;28;20386;-81
2023/05/30 05:41:13;;;;;;;3.00;1.73;;;15.20;54.40;;;;;;4996156;28;20041;-80
2023/05/30 05:43:39;;;;;;;2.42;1.70;;;15.20;54.50;;;;;;5013401;28;20494;-81
2023/05/30 05:46:05;;;;;;;2.33;1.80;;;15.20;54.50;;;;;;5012882;28;20042;-79
2023/05/30 05:48:31;;;;;;;3.05;1.77;;;15.20;54.50;;;;;;5012996;28;20460;-81
2023/05/30 05:50:56;;;;;;;4.25;1.88;;;15.20;54.50;;;;;;5012241;28;20030;-80
2023/05/30 05:53:22;;;;;;;2.42;1.80;;;15.20;54.50;;;;;;4996132;28;20038;-81
2023/05/30 05:55:48;;;;;;;2.97;1.70;;;15.20;54.50;;;;;;4996671;28;20088;-83
2023/05/30 05:58:17;;;;;;;4.38;2.03;;;15.30;54.60;;;;;;4996838;28;20037;-80
2023/05/30 06:00:42;;;;;;;3.63;1.90;;;15.20;54.60;;;;;;5012381;28;20026;-80
2023/05/30 06:03:08;;;;;;;4.05;1.80;;;15.30;54.60;;;;;;5012248;28;20034;-81
2023/05/30 06:05:34;;;;;;;4.53;1.85;;;15.30;54.60;;;;;;5012186;28;20077;-81
2023/05/30 06:08:00;;;;;;;3.88;1.77;;;15.30;54.60;;;;;;5013248;28;20030;-81
2023/05/30 06:10:26;;;;;;;3.60;1.80;;;15.30;54.60;;;;;;4995537;28;20038;-79
2023/05/30 06:12:51;;;;;;;2.90;2.03;;;15.30;54.60;;;;;;5014118;28;20167;-80
2023/05/30 06:15:17;;;;;;;2.70;1.67;;;15.30;54.60;;;;;;4983747;28;20030;-82
2023/05/30 06:17:43;;;;;;;3.08;1.80;;;15.30;54.60;;;;;;5048943;28;20042;-79
2023/05/30 06:20:09;;;;;;;2.22;1.85;;;15.30;54.60;;;;;;5015917;28;20033;-79
2023/05/30 06:22:38;;;;;;;2.35;1.70;;;15.40;54.70;;;;;;5015796;28;20108;-79
2023/05/30 06:25:04;;;;;;;5.00;1.85;;;15.40;54.80;;;;;;5016215;28;20096;-81
2023/05/30 06:27:30;;;;;;;3.45;1.80;;;15.40;54.70;;;;;;5016928;28;20092;-80
2023/05/30 06:29:56;;;;;;;3.08;2.00;;;15.40;54.70;;;;;;5034435;28;20033;-79
2023/05/30 06:32:21;;;;;;;3.05;1.77;;;15.40;54.80;;;;;;5035546;28;20439;-79
2023/05/30 06:34:47;;;;;;;3.25;2.17;;;15.40;54.70;;;;;;5021006;28;20471;-79
2023/05/30 06:37:16;;;;;;;3.20;1.90;;;15.40;54.70;;;;;;5021044;28;20084;-82
2023/05/30 06:39:42;;;;;;;3.42;1.98;;;15.40;54.80;;;;;;5001266;28;20029;-79
2023/05/30 06:42:11;;;;;;;4.43;1.92;;;15.50;54.80;;;;;;5015808;28;20485;-78
2023/05/30 06:44:43;;;;;;;2.67;1.75;;;15.50;54.80;;;;;;5031234;28;20117;-77
2023/05/30 06:47:09;;;;;;;2.53;1.75;;;15.50;54.70;;;;;;5015438;28;20101;-78
2023/05/30 06:49:35;;;;;;;3.40;1.70;;;15.50;54.80;;;;;;4999518;28;20133;-79
2023/05/30 06:52:00;;;;;;;4.35;1.90;;;15.60;54.80;;;;;;5048439;28;20121;-77
2023/05/30 06:54:26;;;;;;;2.03;1.58;;;15.60;54.80;;;;;;4999068;28;20038;-76
2023/05/30 06:56:52;;;;;;;2.03;1.70;;;15.50;54.80;;;;;;5015032;28;20022;-77
2023/05/30 06:59:19;;;;;;;2.78;1.95;;;15.60;54.80;;;;;;5015447;28;20034;-77
2023/05/30 07:01:45;;;;;;;2.70;1.95;;;15.60;54.80;;;;;;4999014;28;20395;-78
2023/05/30 07:04:11;;;;;;;3.17;1.80;;;15.70;54.80;;;;;;5014759;28;20041;-78
2023/05/30 07:06:37;;;;;;;4.00;1.88;;;15.70;54.80;;;;;;4998495;28;20602;-77
2023/05/30 07:09:03;;;;;;;3.33;2.00;;;15.70;54.80;;;;;;4999183;28;20034;-78
2023/05/30 07:11:31;;;;;;;2.92;2.00;;;15.70;54.80;;;;;;5015856;28;20030;-78
2023/05/30 07:13:57;;;;;;;2.72;1.77;;;15.70;54.80;;;;;;5048056;28;20125;-79
2023/05/30 07:16:22;;;;;;;2.72;1.80;;;15.70;54.80;;;;;;4998503;28;20168;-79
2023/05/30 07:18:48;;;;;;;4.43;2.47;;;15.80;54.80;;;;;;4998591;28;20124;-77
2023/05/30 07:21:14;;;;;;;2.85;1.88;;;15.80;54.80;;;;;;5047935;28;20034;-77
2023/05/30 07:23:40;;;;;;;2.47;1.98;;;15.80;54.70;;;;;;4997664;28;20033;-77
2023/05/30 07:26:08;;;;;;;2.45;1.92;;;15.80;54.70;;;;;;5014910;28;20046;-78
2023/05/30 07:28:34;;;;;;;4.03;2.10;;;15.80;54.70;;;;;;4998325;28;20041;-77
2023/05/30 07:31:00;;;;;;;2.67;1.63;;;15.90;54.70;;;;;;4998782;28;20034;-77
2023/05/30 07:33:25;;;;;;;4.03;2.20;;;15.90;54.70;;;;;;4998332;28;20037;-78
2023/05/30 07:35:54;;;;;;;2.67;1.80;;;15.90;54.70;;;;;;5014616;28;20042;-78
2023/05/30 07:38:20;;;;;;;3.85;2.15;;;16.00;54.70;;;;;;5030775;28;20029;-77
2023/05/30 07:40:46;;;;;;;3.15;2.00;;;16.00;54.60;;;;;;5015463;28;20088;-79
2023/05/30 07:43:11;;;;;;;3.28;1.75;;;16.00;54.60;;;;;;5031044;28;20045;-77
2023/05/30 07:45:37;;;;;;;3.15;2.08;;;16.10;54.60;;;;;;4997811;28;20108;-78
2023/05/30 07:48:05;;;;;;;3.88;1.90;;;16.10;54.50;;;;;;5014388;28;20068;-78
2023/05/30 07:50:33;;;;;;;2.65;1.80;;;16.20;54.60;;;;;;5015476;28;20113;-77
2023/05/30 07:52:59;;;;;;;3.97;2.20;;;16.20;54.50;;;;;;4998166;28;20040;-78
2023/05/30 07:55:26;;;;;;;3.90;1.90;;;16.30;54.50;;;;;;4998070;28;20113;-78
2023/05/30 07:57:52;;;;;;;3.22;2.10;;;16.30;54.40;;;;;;5047169;28;20045;-78
2023/05/30 08:00:18;;;;;;;2.70;1.80;;;16.40;54.30;;;;;;4997774;28;20046;-79
2023/05/30 08:02:44;;;;;;;4.05;1.90;;;16.40;54.30;;;;;;5014268;28;20038;-79
2023/05/30 08:05:09;;;;;;;3.25;2.00;;;16.50;54.30;;;;;;4997507;28;20414;-78
2023/05/30 08:07:35;;;;;;;3.28;2.00;;;16.50;54.20;;;;;;5013988;28;20471;-79
2023/05/30 08:10:01;;;;;;;2.75;1.77;;;16.60;54.20;;;;;;4997651;28;20038;-79
2023/05/30 08:12:29;;;;;;;3.97;2.00;;;16.60;54.10;;;;;;5013695;28;20481;-78
2023/05/30 08:14:56;;;;;;;3.55;2.00;;;16.70;54.10;;;;;;4997722;28;20037;-78
2023/05/30 08:17:26;;;;;;;3.97;1.88;;;16.70;54.10;;;;;;5013911;28;20048;-78
2023/05/30 08:19:53;;;;;;;3.35;1.85;;;16.70;54.00;;;;;;4998839;28;20486;-78
2023/05/30 08:22:21;;;;;;;3.70;1.80;;;16.80;54.00;;;;;;5030998;28;20602;-77
2023/05/30 08:24:50;;;;;;;5.05;1.92;;;16.80;54.00;;;;;;4997617;28;20041;-79
2023/05/30 08:27:17;;;;;;;3.38;1.85;;;16.90;54.00;;;;;;5014914;28;20475;-78
2023/05/30 08:29:43;;;;;;;2.88;1.70;;;16.90;53.90;;;;;;5014719;28;20437;-78
2023/05/30 08:32:09;;;;;;;2.97;1.80;;;16.90;53.80;;;;;;5030042;28;20045;-77
2023/05/30 08:34:35;;;;;;;3.47;2.10;;;17.00;53.80;;;;;;5015191;28;20030;-77
2023/05/30 08:37:01;;;;;;;3.38;1.98;;;17.10;53.70;;;;;;4996893;28;20402;-76
2023/05/30 08:39:27;;;;;;;3.33;2.22;;;17.20;53.70;;;;;;5013302;28;20030;-77
2023/05/30 08:41:53;;;;;;;3.67;2.20;;;17.20;53.60;;;;;;5014906;28;20033;-78
2023/05/30 08:44:19;;;;;;;2.63;1.85;;;17.30;53.60;;;;;;5029599;28;20489;-78
2023/05/30 08:46:45;;;;;;;2.35;1.75;;;17.30;53.60;;;;;;5013063;28;20052;-77
2023/05/30 08:49:21;;;;;;;2.08;1.70;;;17.40;53.50;;;;;;5013324;28;20029;-78
2023/05/30 08:51:49;;;;;;;2.97;1.98;;;17.50;53.60;;;;;;4997132;28;20091;-78
2023/05/30 08:54:27;;;;;;;2.75;1.75;;;17.60;53.40;;;;;;5029671;28;20064;-78
2023/05/30 08:57:09;;;;;;;3.22;2.20;;;17.60;53.40;;;;;;5012839;28;20149;-78
2023/05/30 08:59:35;;;;;;;3.42;2.10;;;17.70;53.40;;;;;;5029469;28;20040;-78
2023/05/30 09:02:02;;;;;;;3.60;1.60;;;17.80;53.30;;;;;;5013981;28;20037;-78
2023/05/30 09:04:30;;;;;;;3.38;1.83;;;17.90;53.30;;;;;;5001322;28;20096;-80
2023/05/30 09:06:57;;;;;;;3.03;1.90;;;18.00;53.40;;;;;;5020071;28;20501;-78
2023/05/30 09:09:23;;;;;;;2.63;1.77;;;18.10;53.30;;;;;;4996477;28;20038;-77
2023/05/30 09:11:52;;;;;;;4.13;2.20;;;18.20;53.20;;;;;;5013890;28;20030;-78
2023/05/30 09:14:18;;;;;;;2.85;1.63;;;18.20;53.10;;;;;;5029143;28;20075;-78
2023/05/30 09:16:43;;;;;;;2.63;1.73;;;18.30;53.10;;;;;;5013317;28;20034;-77
2023/05/30 09:19:09;;;;;;;3.45;2.15;;;18.40;53.00;;;;;;5014240;28;20436;-77
2023/05/30 09:21:36;;;;;;;2.42;1.73;;;18.50;53.00;;;;;;4996718;28;20057;-78
2023/05/30 09:24:05;;;;;;;2.83;1.85;;;18.60;53.00;;;;;;5012964;28;20022;-77
2023/05/30 09:26:32;;;;;;;3.97;2.08;;;18.60;53.00;;;;;;5014674;28;20029;-79
2023/05/30 09:29:09;;;;;;;3.58;2.05;;;18.70;52.90;;;;;;4983457;28;20030;-78
2023/05/30 09:31:36;;;;;;;3.38;1.85;;;18.80;53.00;;;;;;4999511;28;20380;-78
2023/05/30 09:34:02;;;;;;;5.00;1.95;;;18.90;52.90;;;;;;4997642;28;20033;-77
2023/05/30 09:36:28;;;;;;;3.50;1.98;;;19.00;52.90;;;;;;5029230;28;20029;-78
2023/05/30 09:38:58;;;;;;;4.07;2.30;;;19.00;52.80;;;;;;4996371;28;20042;-76
2023/05/30 09:41:26;;;;;;;2.97;1.90;;;19.10;52.80;;;;;;5012859;28;20064;-77
2023/05/30 09:43:53;;;;;;;4.22;1.98;;;19.20;52.70;;;;;;5029009;28;20033;-77
2023/05/30 09:46:21;;;;;;;3.75;2.05;;;19.20;52.60;;;;;;5028602;28;20030;-79
2023/05/30 09:48:48;;;;;;;2.80;1.80;;;19.30;52.60;;;;;;5028826;28;20144;-90
2023/05/30 09:51:15;;;;;;;3.50;2.03;;;19.40;52.60;;;;;;5028871;28;20029;-76
2023/05/30 09:54:03;;;;;;;3.67;1.85;;;19.50;52.60;;;;;;5012209;28;20038;-76
2023/05/30 09:56:39;;;;;;;4.20;1.98;;;19.60;52.60;;;;;;5012157;28;20538;-81
2023/05/30 09:59:10;;;;;;;3.65;1.90;;;19.70;52.50;;;;;;5012640;28;20161;-78
2023/05/30 10:01:48;;;;;;;3.17;1.90;;;19.80;52.40;;;;;;5012294;28;20030;-77
2023/05/30 10:04:19;;;;;;;3.15;1.80;;;19.80;52.30;;;;;;5044825;28;20033;-77
2023/05/30 10:06:47;;;;;;;3.58;2.25;;;20.00;52.30;;;;;;5045978;28;20065;-77
2023/05/30 10:09:14;;;;;;;2.15;1.60;;;20.10;52.30;;;;;;5028355;28;20394;-77
2023/05/30 10:11:42;;;;;;;3.25;2.20;;;20.10;52.20;;;;;;5028616;28;20112;-77
2023/05/30 10:14:08;;;;;;;4.35;2.40;;;20.20;52.20;;;;;;4995766;28;20104;-77
2023/05/30 10:16:44;;;;;;;3.38;2.17;;;20.30;52.20;;;;;;4995667;28;20088;-77
2023/05/30 10:19:17;;;;;;;3.53;1.85;;;20.40;52.20;;;;;;5013135;28;20517;-77
2023/05/30 10:21:44;;;;;;;2.53;1.90;;;20.50;52.20;;;;;;5028216;28;20026;-77
2023/05/30 10:24:13;;;;;;;4.55;2.17;;;20.50;52.10;;;;;;5045358;28;20060;-76
2023/05/30 10:26:46;;;;;;;4.00;2.17;;;20.60;52.10;;;;;;5012006;28;20058;-77
2023/05/30 10:29:14;;;;;;;3.15;1.88;;;20.80;52.20;;;;;;5012013;28;20033;-76
2023/05/30 10:31:41;;;;;;;2.60;1.73;;;20.80;52.10;;;;;;5012949;28;20463;-77
2023/05/30 10:34:11;;;;;;;3.80;2.03;;;20.90;52.10;;;;;;5045208;28;20463;-77
2023/05/30 10:36:41;;;;;;;3.58;2.15;;;21.00;52.10;;;;;;5013054;28;20038;-77
2023/05/30 10:39:31;;;;;;;2.67;1.88;;;21.10;52.00;;;;;;5012775;28;20038;-77
2023/05/30 10:42:03;;;;;;;3.67;2.10;;;21.20;52.00;;;;;;5029062;28;20026;-76
2023/05/30 10:44:54;;;;;;;3.40;1.85;;;21.30;52.00;;;;;;5028355;28;20030;-77
2023/05/30 10:47:38;;;;;;;3.25;1.80;;;21.30;52.00;;;;;;5028652;28;20046;-76
2023/05/30 10:50:13;;;;;;;2.95;1.88;;;21.50;52.00;;;;;;5013322;28;20034;-77
2023/05/30 10:52:41;;;;;;;3.70;1.90;;;21.50;51.90;;;;;;5012740;28;20030;-76
2023/05/30 10:55:10;;;;;;;2.67;1.80;;;21.60;51.90;;;;;;5012223;28;20085;-75
2023/05/30 10:57:36;;;;;;;4.05;2.13;;;21.60;51.80;;;;;;5011620;28;20475;-76
2023/05/30 11:00:25;;;;;;;4.28;1.90;;;21.70;51.80;;;;;;4997430;28;20056;-76
2023/05/30 11:02:53;;;;;;;2.88;1.73;;;21.70;52.00;;;;;;5032016;28;20082;-78
2023/05/30 11:05:38;;;;;;;2.55;1.73;;;21.80;51.90;;;;;;5014851;28;20053;-78
2023/05/30 11:08:04;;;;;;;2.78;1.75;;;21.90;52.10;;;;;;5028464;28;20129;-78
2023/05/30 11:10:31;;;;;;;2.80;1.80;;;21.90;52.10;;;;;;4998912;28;20084;-79
2023/05/30 11:13:11;;;;;;;3.92;2.10;;;22.00;52.20;;;;;;5048462;28;20501;-79
2023/05/30 11:15:43;;;;;;;3.22;1.92;;;22.00;52.20;;;;;;5015309;28;20034;-82
2023/05/30 11:18:19;;;;;;;2.65;1.67;;;22.00;52.80;;;;;;5031337;28;20029;-79
2023/05/30 11:20:55;;;;;;;3.10;1.85;;;22.10;52.30;;;;;;5016201;28;20029;-79
2023/05/30 11:23:23;;;;;;;3.38;1.83;;;22.10;52.40;;;;;;5015593;28;20510;-78
2023/05/30 11:25:52;;;;;;;4.35;2.03;;;22.10;52.30;;;;;;5014952;28;20042;-78
2023/05/30 11:28:33;;;;;;;4.40;2.35;;;22.20;52.50;;;;;;5015839;28;20060;-81
2023/05/30 11:30:59;;;;;;;3.83;2.15;;;22.20;52.60;;;;;;5032038;28;20114;-79
2023/05/30 11:33:25;;;;;;;3.75;2.00;;;22.20;52.50;;;;;;5014658;28;20057;-78
2023/05/30 11:35:51;;;;;;;4.07;2.10;;;22.30;52.70;;;;;;5015368;28;20076;-79
2023/05/30 11:38:21;;;;;;;3.75;2.28;;;22.30;52.70;;;;;;5015036;28;20053;-77
2023/05/30 11:40:49;;;;;;;3.85;2.25;;;22.30;52.80;;;;;;5015898;28;20026;-78
2023/05/30 11:43:16;;;;;;;3.13;1.80;;;22.30;52.80;;;;;;5030950;28;20022;-79
2023/05/30 11:45:43;;;;;;;3.05;2.00;;;22.30;52.70;;;;;;5014637;28;20042;-78
2023/05/30 11:48:10;;;;;;;3.97;2.00;;;22.40;52.80;;;;;;5030752;28;20129;-78
2023/05/30 11:50:40;;;;;;;4.38;2.10;;;22.40;52.80;;;;;;5015330;28;20030;-77
2023/05/30 11:53:16;;;;;;;2.95;2.10;;;22.40;52.80;;;;;;5031452;28;20026;-77
2023/05/30 11:55:49;;;;;;;3.55;2.20;;;22.40;52.80;;;;;;5030503;28;20386;-77
2023/05/30 11:58:16;;;;;;;3.25;2.10;;;22.40;52.70;;;;;;5014146;28;20030;-77
2023/05/30 12:00:43;;;;;;;4.00;2.20;;;22.40;52.60;;;;;;5014624;28;20038;-76
2023/05/30 12:03:16;;;;;;;3.20;1.80;;;22.50;52.70;;;;;;5013876;28;20478;-76
2023/05/30 12:05:46;;;;;;;4.30;1.90;;;22.50;52.70;;;;;;5014776;28;20073;-77
2023/05/30 12:08:33;;;;;;;3.97;1.98;;;22.50;52.80;;;;;;5014503;28;20176;-76
2023/05/30 12:10:58;;;;;;;3.35;1.83;;;22.50;52.80;;;;;;4998020;28;20022;-76
2023/05/30 12:13:24;;;;;;;3.85;2.17;;;22.50;52.70;;;;;;5013648;28;20483;-77
2023/05/30 12:15:51;;;;;;;5.05;2.00;;;22.50;52.60;;;;;;5013887;28;20038;-76
2023/05/30 12:18:17;;;;;;;3.60;2.15;;;22.50;52.50;;;;;;5013726;28;20486;-77
2023/05/30 12:20:44;;;;;;;3.38;2.10;;;22.50;52.50;;;;;;5013403;28;20038;-77
2023/05/30 12:23:12;;;;;;;3.63;2.20;;;22.50;52.50;;;;;;5029909;28;20109;-77
2023/05/30 12:25:38;;;;;;;2.63;1.90;;;22.50;52.40;;;;;;4997601;28;20038;-78
2023/05/30 12:28:04;;;;;;;3.35;1.90;;;22.50;52.40;;;;;;5013284;28;20030;-78
2023/05/30 12:30:34;;;;;;;3.17;1.95;;;22.50;52.30;;;;;;5047520;28;20407;-77
2023/05/30 12:33:15;;;;;;;3.10;2.08;;;22.50;52.20;;;;;;5030746;28;20026;-78
2023/05/30 12:35:41;;;;;;;3.25;1.90;;;22.50;52.30;;;;;;5030075;28;20034;-78
2023/05/30 12:38:08;;;;;;;4.20;2.05;;;22.50;52.20;;;;;;5013743;28;20475;-79
2023/05/30 12:40:34;;;;;;;2.67;1.80;;;22.50;52.10;;;;;;5014897;28;20538;-78
2023/05/30 12:43:00;;;;;;;3.50;1.70;;;22.50;52.10;;;;;;5014651;28;20072;-79
2023/05/30 12:45:26;;;;;;;3.33;1.88;;;22.50;51.80;;;;;;4997692;28;20422;-79
2023/05/30 12:47:52;;;;;;;3.40;2.03;;;22.50;51.60;;;;;;5013211;28;20548;-80
2023/05/30 12:50:18;;;;;;;2.83;1.80;;;22.50;51.50;;;;;;5014138;28;20030;-80
2023/05/30 12:52:44;;;;;;;2.97;1.85;;;22.50;51.50;;;;;;5013990;28;20034;-79